Aberdeen, Canada
Current Conditions -  °F | °C
As of 9:00 PM on Thursday 18 Dec 2014 (Local Time) from CYXE Reporting Station
Light Snow Light Snow  
Wind Chill:   Ceiling: 500
Heat Index: 19°   Visibility: 8mi
Dew Point: 19°   Wind: 8mph
Humidity: 100%   Direction: 320°NW
Pressure: 29.91"   Gusts: NA
Location:  52.32°N, 106.28°W
Report Text: CYXE 190300Z 32007KT 270V330 8SM -SN OVC005 M07/M07 A2991 RMK ST8 SLP162
Loading
Personal Weather Stations






























Interactive Weather Map New forecast layout! Learn more

10-Day Weather Forecast

Advertisements
Track Severe Weather on mobile